sensor_id;sensor_type;location;lat;lon;timestamp;pressure;altitude;pressure_sealevel;temperature;humidity
52953;BME280;38815;55.932;-3.232;2022-09-12T00:01:20;99798.50;;;20.24;71.35
52953;BME280;38815;55.932;-3.232;2022-09-12T00:03:46;99796.22;;;20.23;71.21
52953;BME280;38815;55.932;-3.232;2022-09-12T00:06:18;99792.84;;;20.24;71.48
52953;BME280;38815;55.932;-3.232;2022-09-12T00:08:44;99803.97;;;20.22;71.19
52953;BME280;38815;55.932;-3.232;2022-09-12T00:11:11;99775.13;;;20.09;71.21
52953;BME280;38815;55.932;-3.232;2022-09-12T00:13:37;99790.94;;;20.19;71.08
52953;BME280;38815;55.932;-3.232;2022-09-12T00:16:03;99791.13;;;20.21;71.25
52953;BME280;38815;55.932;-3.232;2022-09-12T00:18:30;99782.47;;;20.19;70.81
52953;BME280;38815;55.932;-3.232;2022-09-12T00:21:03;99783.97;;;20.20;71.07
52953;BME280;38815;55.932;-3.232;2022-09-12T00:23:30;99772.06;;;20.14;71.55
52953;BME280;38815;55.932;-3.232;2022-09-12T00:25:55;99766.63;;;20.09;71.37
52953;BME280;38815;55.932;-3.232;2022-09-12T00:28:21;99790.56;;;20.23;71.55
52953;BME280;38815;55.932;-3.232;2022-09-12T00:30:50;99785.47;;;20.21;71.97
52953;BME280;38815;55.932;-3.232;2022-09-12T00:33:16;99774.34;;;20.08;71.74
52953;BME280;38815;55.932;-3.232;2022-09-12T00:35:49;99775.13;;;20.09;71.92
52953;BME280;38815;55.932;-3.232;2022-09-12T00:38:17;99794.72;;;20.22;72.12
52953;BME280;38815;55.932;-3.232;2022-09-12T00:40:43;99781.50;;;20.09;72.02
52953;BME280;38815;55.932;-3.232;2022-09-12T00:48:50;99785.69;;;20.16;72.07
52953;BME280;38815;55.932;-3.232;2022-09-12T00:51:17;99783.22;;;20.12;72.42
52953;BME280;38815;55.932;-3.232;2022-09-12T00:53:47;99796.22;;;20.23;72.21
52953;BME280;38815;55.932;-3.232;2022-09-12T00:56:16;99789.25;;;20.24;72.14
52953;BME280;38815;55.932;-3.232;2022-09-12T00:58:56;99768.69;;;20.08;72.58
52953;BME280;38815;55.932;-3.232;2022-09-12T01:01:23;99777.19;;;20.08;72.34
52953;BME280;38815;55.932;-3.232;2022-09-12T01:03:49;99744.56;;;19.92;72.54
52953;BME280;38815;55.932;-3.232;2022-09-12T01:06:19;99761.34;;;19.98;72.61
52953;BME280;38815;55.932;-3.232;2022-09-12T01:08:47;99800.41;;;20.22;72.61
52953;BME280;38815;55.932;-3.232;2022-09-12T01:11:13;99689.41;;;19.46;72.81
52953;BME280;38815;55.932;-3.232;2022-09-12T01:13:40;99768.50;;;19.99;72.75
52953;BME280;38815;55.932;-3.232;2022-09-12T01:16:06;99796.81;;;20.14;72.68
52953;BME280;38815;55.932;-3.232;2022-09-12T01:21:24;99805.09;;;20.19;73.08
52953;BME280;38815;55.932;-3.232;2022-09-12T01:38:18;99803.03;;;20.20;72.21
52953;BME280;38815;55.932;-3.232;2022-09-12T01:43:32;99809.25;;;20.18;72.27
52953;BME280;38815;55.932;-3.232;2022-09-12T01:49:23;99801.34;;;20.17;71.90
52953;BME280;38815;55.932;-3.232;2022-09-12T01:52:08;99806.78;;;20.15;72.05
52953;BME280;38815;55.932;-3.232;2022-09-12T01:54:42;99801.13;;;20.15;71.98
52953;BME280;38815;55.932;-3.232;2022-09-12T01:57:23;99794.75;;;20.07;71.85
52953;BME280;38815;55.932;-3.232;2022-09-12T01:59:56;99788.72;;;19.95;72.01
52953;BME280;38815;55.932;-3.232;2022-09-12T02:02:37;99811.53;;;20.12;71.82
52953;BME280;38815;55.932;-3.232;2022-09-12T02:05:35;99699.78;;;19.43;71.86
52953;BME280;38815;55.932;-3.232;2022-09-12T02:08:07;99784.94;;;19.92;71.68
52953;BME280;38815;55.932;-3.232;2022-09-12T02:10:41;99782.69;;;19.91;71.93
52953;BME280;38815;55.932;-3.232;2022-09-12T02:13:32;99765.72;;;19.83;71.75
52953;BME280;38815;55.932;-3.232;2022-09-12T02:16:08;99800.59;;;20.09;71.91
52953;BME280;38815;55.932;-3.232;2022-09-12T02:18:38;99713.91;;;19.43;71.65
52953;BME280;38815;55.932;-3.232;2022-09-12T02:21:05;99801.69;;;20.06;71.71
52953;BME280;38815;55.932;-3.232;2022-09-12T02:23:32;99762.16;;;19.83;71.52
52953;BME280;38815;55.932;-3.232;2022-09-12T02:26:09;99788.72;;;19.87;71.91
52953;BME280;38815;55.932;-3.232;2022-09-12T02:28:40;99807.94;;;20.04;71.50
52953;BME280;38815;55.932;-3.232;2022-09-12T02:31:44;99811.53;;;20.05;71.71
52953;BME280;38815;55.932;-3.232;2022-09-12T02:34:26;99806.06;;;19.99;71.54
52953;BME280;38815;55.932;-3.232;2022-09-12T02:39:53;99801.91;;;19.92;71.54
52953;BME280;38815;55.932;-3.232;2022-09-12T02:42:20;99822.66;;;20.03;71.32
52953;BME280;38815;55.932;-3.232;2022-09-12T02:44:46;99823.97;;;20.02;71.14
52953;BME280;38815;55.932;-3.232;2022-09-12T02:49:53;99762.91;;;19.53;71.14
52953;BME280;38815;55.932;-3.232;2022-09-12T02:52:20;99812.69;;;19.86;70.83
52953;BME280;38815;55.932;-3.232;2022-09-12T02:54:45;99831.91;;;19.96;70.71
52953;BME280;38815;55.932;-3.232;2022-09-12T02:57:19;99829.63;;;19.94;70.67
52953;BME280;38815;55.932;-3.232;2022-09-12T02:59:46;99832.47;;;19.94;70.71
52953;BME280;38815;55.932;-3.232;2022-09-12T03:05:18;99838.88;;;19.95;70.55
52953;BME280;38815;55.932;-3.232;2022-09-12T03:18:59;99818.16;;;19.84;70.79
52953;BME280;38815;55.932;-3.232;2022-09-12T03:21:29;99821.72;;;19.92;70.63
52953;BME280;38815;55.932;-3.232;2022-09-12T03:24:08;99796.84;;;19.76;70.66
52953;BME280;38815;55.932;-3.232;2022-09-12T03:26:54;99809.44;;;19.90;70.51
52953;BME280;38815;55.932;-3.232;2022-09-12T03:29:23;99823.78;;;19.92;70.55
52953;BME280;38815;55.932;-3.232;2022-09-12T03:31:55;99811.34;;;19.87;70.33
52953;BME280;38815;55.932;-3.232;2022-09-12T03:34:22;99824.16;;;19.88;70.33
52953;BME280;38815;55.932;-3.232;2022-09-12T03:36:57;99818.69;;;19.90;70.07
52953;BME280;38815;55.932;-3.232;2022-09-12T03:39:24;99822.09;;;19.89;69.84
52953;BME280;38815;55.932;-3.232;2022-09-12T03:41:51;99801.75;;;19.75;69.55
52953;BME280;38815;55.932;-3.232;2022-09-12T03:44:18;99804.56;;;19.68;69.61
52953;BME280;38815;55.932;-3.232;2022-09-12T03:46:44;99810.59;;;19.72;69.70
52953;BME280;38815;55.932;-3.232;2022-09-12T03:49:10;99830.41;;;19.79;69.46
52953;BME280;38815;55.932;-3.232;2022-09-12T03:51:36;99841.13;;;19.88;69.37
52953;BME280;38815;55.932;-3.232;2022-09-12T03:54:07;99826.81;;;19.71;69.45
52953;BME280;38815;55.932;-3.232;2022-09-12T03:56:33;99847.00;;;19.83;69.46
52953;BME280;38815;55.932;-3.232;2022-09-12T03:59:00;99848.13;;;19.80;69.05
52953;BME280;38815;55.932;-3.232;2022-09-12T04:01:25;99818.13;;;19.62;68.88
52953;BME280;38815;55.932;-3.232;2022-09-12T04:03:51;99828.69;;;19.69;69.01
52953;BME280;38815;55.932;-3.232;2022-09-12T04:06:19;99855.66;;;19.85;68.92
52953;BME280;38815;55.932;-3.232;2022-09-12T04:08:50;99849.81;;;19.75;68.81
52953;BME280;38815;55.932;-3.232;2022-09-12T04:11:39;99851.50;;;19.78;68.63
52953;BME280;38815;55.932;-3.232;2022-09-12T04:14:04;99826.44;;;19.60;68.62
52953;BME280;38815;55.932;-3.232;2022-09-12T04:16:30;99860.19;;;19.80;68.50
52953;BME280;38815;55.932;-3.232;2022-09-12T04:18:57;99850.19;;;19.72;68.74
52953;BME280;38815;55.932;-3.232;2022-09-12T04:21:23;99836.41;;;19.61;68.50
52953;BME280;38815;55.932;-3.232;2022-09-12T04:23:48;99753.41;;;19.06;68.63
52953;BME280;38815;55.932;-3.232;2022-09-12T04:26:15;99781.31;;;19.24;68.77
52953;BME280;38815;55.932;-3.232;2022-09-12T04:28:43;99848.31;;;19.67;68.63
52953;BME280;38815;55.932;-3.232;2022-09-12T04:31:12;99857.94;;;19.79;68.59
52953;BME280;38815;55.932;-3.232;2022-09-12T04:33:40;99845.66;;;19.76;68.58
52953;BME280;38815;55.932;-3.232;2022-09-12T04:36:08;99851.31;;;19.76;68.51
52953;BME280;38815;55.932;-3.232;2022-09-12T04:38:57;99856.41;;;19.78;68.28
52953;BME280;38815;55.932;-3.232;2022-09-12T04:41:35;99831.31;;;19.59;68.13
52953;BME280;38815;55.932;-3.232;2022-09-12T04:44:06;99858.09;;;19.73;68.28
52953;BME280;38815;55.932;-3.232;2022-09-12T04:46:35;99861.50;;;19.72;68.21
52953;BME280;38815;55.932;-3.232;2022-09-12T04:49:01;99860.00;;;19.71;68.13
52953;BME280;38815;55.932;-3.232;2022-09-12T04:51:29;99773.00;;;19.11;68.23
52953;BME280;38815;55.932;-3.232;2022-09-12T04:53:57;99837.53;;;19.58;68.44
52953;BME280;38815;55.932;-3.232;2022-09-12T04:56:24;99844.16;;;19.60;68.17
52953;BME280;38815;55.932;-3.232;2022-09-12T04:58:50;99844.72;;;19.66;68.01
52953;BME280;38815;55.932;-3.232;2022-09-12T05:01:17;99859.81;;;19.76;68.11
52953;BME280;38815;55.932;-3.232;2022-09-12T05:03:44;99853.78;;;19.72;67.79
52953;BME280;38815;55.932;-3.232;2022-09-12T05:06:16;99865.66;;;19.71;65.79
52953;BME280;38815;55.932;-3.232;2022-09-12T05:08:42;99878.66;;;19.81;68.20
52953;BME280;38815;55.932;-3.232;2022-09-12T05:11:11;99865.66;;;19.71;68.33
52953;BME280;38815;55.932;-3.232;2022-09-12T05:13:37;99872.47;;;19.83;68.20
52953;BME280;38815;55.932;-3.232;2022-09-12T05:16:04;99872.06;;;19.79;68.05
52953;BME280;38815;55.932;-3.232;2022-09-12T05:18:31;99878.13;;;19.83;68.24
52953;BME280;38815;55.932;-3.232;2022-09-12T05:21:01;99858.47;;;19.70;68.26
52953;BME280;38815;55.932;-3.232;2022-09-12T05:23:28;99887.34;;;19.83;68.11
52953;BME280;38815;55.932;-3.232;2022-09-12T05:25:55;99884.50;;;19.83;68.20
52953;BME280;38815;55.932;-3.232;2022-09-12T05:28:22;99885.28;;;19.84;68.06
52953;BME280;38815;55.932;-3.232;2022-09-12T05:30:59;99883.00;;;19.82;68.22
52953;BME280;38815;55.932;-3.232;2022-09-12T05:33:24;99878.84;;;19.83;68.23
52953;BME280;38815;55.932;-3.232;2022-09-12T05:35:50;99853.00;;;19.64;68.11
52953;BME280;38815;55.932;-3.232;2022-09-12T05:38:16;99881.69;;;19.83;68.21
52953;BME280;38815;55.932;-3.232;2022-09-12T05:40:42;99875.28;;;19.83;67.95
52953;BME280;38815;55.932;-3.232;2022-09-12T05:43:07;99868.88;;;19.82;68.06
52953;BME280;38815;55.932;-3.232;2022-09-12T05:45:34;99851.31;;;19.69;68.18
52953;BME280;38815;55.932;-3.232;2022-09-12T05:47:59;99850.38;;;19.66;68.10
52953;BME280;38815;55.932;-3.232;2022-09-12T05:50:26;99851.53;;;19.71;68.09
52953;BME280;38815;55.932;-3.232;2022-09-12T05:52:52;99874.13;;;19.78;68.19
52953;BME280;38815;55.932;-3.232;2022-09-12T05:55:19;99879.41;;;19.82;67.81
52953;BME280;38815;55.932;-3.232;2022-09-12T05:57:44;99884.88;;;19.80;67.98
52953;BME280;38815;55.932;-3.232;2022-09-12T06:00:11;99857.34;;;19.65;67.83
52953;BME280;38815;55.932;-3.232;2022-09-12T06:02:37;99857.34;;;19.65;67.95
52953;BME280;38815;55.932;-3.232;2022-09-12T06:05:03;99870.75;;;19.72;67.84
52953;BME280;38815;55.932;-3.232;2022-09-12T06:07:28;99860.00;;;19.63;67.89
52953;BME280;38815;55.932;-3.232;2022-09-12T06:09:54;99877.53;;;19.77;67.80
52953;BME280;38815;55.932;-3.232;2022-09-12T06:12:19;99868.88;;;19.67;67.76
52953;BME280;38815;55.932;-3.232;2022-09-12T06:14:44;99873.59;;;19.72;67.92
52953;BME280;38815;55.932;-3.232;2022-09-12T06:17:10;99884.50;;;19.83;68.00
52953;BME280;38815;55.932;-3.232;2022-09-12T06:19:36;99883.78;;;19.83;68.03
52953;BME280;38815;55.932;-3.232;2022-09-12T06:22:01;99873.38;;;19.70;68.00
52953;BME280;38815;55.932;-3.232;2022-09-12T06:24:27;99893.75;;;19.84;68.15
52953;BME280;38815;55.932;-3.232;2022-09-12T06:27:15;99900.75;;;19.83;68.06
52953;BME280;38815;55.932;-3.232;2022-09-12T06:29:41;99893.00;;;19.83;67.93
52953;BME280;38815;55.932;-3.232;2022-09-12T06:32:06;99894.31;;;19.90;68.28
52953;BME280;38815;55.932;-3.232;2022-09-12T06:34:32;99868.50;;;19.71;67.32
52953;BME280;38815;55.932;-3.232;2022-09-12T06:37:08;99889.59;;;19.85;67.39
52953;BME280;38815;55.932;-3.232;2022-09-12T06:39:33;99864.13;;;19.70;68.12
52953;BME280;38815;55.932;-3.232;2022-09-12T06:41:59;99885.66;;;19.80;68.54
52953;BME280;38815;55.932;-3.232;2022-09-12T06:44:25;99894.72;;;19.94;68.53
52953;BME280;38815;55.932;-3.232;2022-09-12T06:46:50;99905.81;;;19.92;68.12
52953;BME280;38815;55.932;-3.232;2022-09-12T06:49:17;99889.44;;;19.83;68.38
52953;BME280;38815;55.932;-3.232;2022-09-12T06:51:44;99875.81;;;19.66;67.96
52953;BME280;38815;55.932;-3.232;2022-09-12T06:54:15;99909.97;;;19.83;67.62
52953;BME280;38815;55.932;-3.232;2022-09-12T06:56:41;99921.84;;;19.82;67.65
52953;BME280;38815;55.932;-3.232;2022-09-12T06:59:07;99840.47;;;19.22;67.38
52953;BME280;38815;55.932;-3.232;2022-09-12T07:01:42;99865.97;;;19.37;67.07
52953;BME280;38815;55.932;-3.232;2022-09-12T07:04:08;99902.00;;;19.59;67.24
52953;BME280;38815;55.932;-3.232;2022-09-12T07:06:36;99924.66;;;19.67;67.14
52953;BME280;38815;55.932;-3.232;2022-09-12T07:09:03;99932.00;;;19.70;67.16
52953;BME280;38815;55.932;-3.232;2022-09-12T07:11:32;99930.69;;;19.63;66.75
52953;BME280;38815;55.932;-3.232;2022-09-12T07:14:00;99933.91;;;19.67;67.25
52953;BME280;38815;55.932;-3.232;2022-09-12T07:16:27;99853.78;;;19.07;66.12
52953;BME280;38815;55.932;-3.232;2022-09-12T07:18:59;99940.69;;;19.72;67.19
52953;BME280;38815;55.932;-3.232;2022-09-12T07:21:25;99930.47;;;19.61;67.07
52953;BME280;38815;55.932;-3.232;2022-09-12T07:23:51;99948.81;;;19.75;67.21
52953;BME280;38815;55.932;-3.232;2022-09-12T07:26:19;99937.31;;;19.66;66.96
52953;BME280;38815;55.932;-3.232;2022-09-12T07:28:50;99941.81;;;19.76;67.36
52953;BME280;38815;55.932;-3.232;2022-09-12T07:31:18;99928.63;;;19.64;66.42
52953;BME280;38815;55.932;-3.232;2022-09-12T07:33:44;99953.69;;;19.75;66.57
52953;BME280;38815;55.932;-3.232;2022-09-12T07:36:14;99918.59;;;19.63;67.05
52953;BME280;38815;55.932;-3.232;2022-09-12T07:38:42;99918.59;;;19.63;66.57
52953;BME280;38815;55.932;-3.232;2022-09-12T07:41:15;99959.38;;;19.82;66.84
52953;BME280;38815;55.932;-3.232;2022-09-12T07:43:41;99932.56;;;19.68;66.93
52953;BME280;38815;55.932;-3.232;2022-09-12T07:46:07;99948.63;;;19.81;66.82
52953;BME280;38815;55.932;-3.232;2022-09-12T07:48:33;99933.91;;;19.67;66.81
52953;BME280;38815;55.932;-3.232;2022-09-12T07:51:04;99939.19;;;19.78;66.98
52953;BME280;38815;55.932;-3.232;2022-09-12T07:53:36;99933.53;;;19.71;67.09
52953;BME280;38815;55.932;-3.232;2022-09-12T07:56:03;99925.41;;;19.67;66.84
52953;BME280;38815;55.932;-3.232;2022-09-12T07:58:30;99905.97;;;19.56;66.59
52953;BME280;38815;55.932;-3.232;2022-09-12T08:01:03;99937.47;;;19.68;66.56
52953;BME280;38815;55.932;-3.232;2022-09-12T08:03:28;99923.13;;;19.58;66.81
52953;BME280;38815;55.932;-3.232;2022-09-12T08:05:54;99933.50;;;19.63;66.87
52953;BME280;38815;55.932;-3.232;2022-09-12T08:08:19;99883.84;;;19.32;66.78
52953;BME280;38815;55.932;-3.232;2022-09-12T08:10:44;99922.38;;;19.50;66.61
52953;BME280;38815;55.932;-3.232;2022-09-12T08:13:10;99910.84;;;19.48;66.80
52953;BME280;38815;55.932;-3.232;2022-09-12T08:15:35;99939.38;;;19.65;66.95
52953;BME280;38815;55.932;-3.232;2022-09-12T08:18:01;99920.47;;;19.53;66.68
52953;BME280;38815;55.932;-3.232;2022-09-12T08:20:26;99926.31;;;19.55;66.63
52953;BME280;38815;55.932;-3.232;2022-09-12T08:22:52;99911.59;;;19.49;66.86
52953;BME280;38815;55.932;-3.232;2022-09-12T08:25:18;99914.41;;;19.41;67.02
52953;BME280;38815;55.932;-3.232;2022-09-12T08:27:43;99937.84;;;19.64;66.87
52953;BME280;38815;55.932;-3.232;2022-09-12T08:30:11;99942.00;;;19.63;67.11
52953;BME280;38815;55.932;-3.232;2022-09-12T08:32:37;99928.38;;;19.54;67.04
52953;BME280;38815;55.932;-3.232;2022-09-12T08:35:02;99932.34;;;19.51;67.01
52953;BME280;38815;55.932;-3.232;2022-09-12T08:37:31;99920.63;;;19.47;66.93
52953;BME280;38815;55.932;-3.232;2022-09-12T08:39:59;99913.81;;;19.35;66.97
52953;BME280;38815;55.932;-3.232;2022-09-12T08:42:57;99956.31;;;19.65;66.97
52953;BME280;38815;55.932;-3.232;2022-09-12T08:45:29;99954.06;;;19.64;66.81
52953;BME280;38815;55.932;-3.232;2022-09-12T08:47:57;99955.38;;;19.63;67.26
52953;BME280;38815;55.932;-3.232;2022-09-12T08:50:26;99939.69;;;19.54;66.83
52953;BME280;38815;55.932;-3.232;2022-09-12T08:52:56;99957.09;;;19.66;66.92
52953;BME280;38815;55.932;-3.232;2022-09-12T08:55:42;99954.81;;;19.64;66.86
52953;BME280;38815;55.932;-3.232;2022-09-12T08:58:25;99938.00;;;19.51;67.02
52953;BME280;38815;55.932;-3.232;2022-09-12T09:01:10;99957.03;;;19.51;67.01
52953;BME280;38815;55.932;-3.232;2022-09-12T09:06:56;99960.47;;;19.64;67.21
52953;BME280;38815;55.932;-3.232;2022-09-12T09:15:11;99957.63;;;19.64;67.57
52953;BME280;38815;55.932;-3.232;2022-09-12T09:17:44;99959.16;;;19.65;67.53
52953;BME280;38815;55.932;-3.232;2022-09-12T09:25:22;99920.06;;;19.41;67.60
52953;BME280;38815;55.932;-3.232;2022-09-12T09:27:56;99941.59;;;19.52;67.38
52953;BME280;38815;55.932;-3.232;2022-09-12T09:30:22;99933.84;;;19.52;67.29
52953;BME280;38815;55.932;-3.232;2022-09-12T09:32:51;99932.72;;;19.48;67.53
52953;BME280;38815;55.932;-3.232;2022-09-12T09:37:57;99938.19;;;19.53;67.41
52953;BME280;38815;55.932;-3.232;2022-09-12T09:43:12;99968.78;;;19.62;67.17
52953;BME280;38815;55.932;-3.232;2022-09-12T09:45:41;99961.22;;;19.57;67.19
52953;BME280;38815;55.932;-3.232;2022-09-12T09:48:14;99967.63;;;19.65;66.94
52953;BME280;38815;55.932;-3.232;2022-09-12T09:50:41;99948.53;;;19.51;66.66
52953;BME280;38815;55.932;-3.232;2022-09-12T09:53:24;99974.59;;;19.64;66.46
52953;BME280;38815;55.932;-3.232;2022-09-12T09:55:52;99959.13;;;19.50;66.45
52953;BME280;38815;55.932;-3.232;2022-09-12T09:58:33;99984.41;;;19.63;66.50
52953;BME280;38815;55.932;-3.232;2022-09-12T10:01:11;99971.56;;;19.55;66.37
52953;BME280;38815;55.932;-3.232;2022-09-12T10:03:39;99953.22;;;19.33;66.16
52953;BME280;38815;55.932;-3.232;2022-09-12T10:06:25;99995.53;;;19.61;65.34
52953;BME280;38815;55.932;-3.232;2022-09-12T10:09:06;99989.84;;;19.54;65.28
52953;BME280;38815;55.932;-3.232;2022-09-12T10:11:41;99992.09;;;19.48;64.83
52953;BME280;38815;55.932;-3.232;2022-09-12T10:14:29;100007.19;;;19.50;64.37
52953;BME280;38815;55.932;-3.232;2022-09-12T10:16:56;100006.63;;;19.52;64.60
52953;BME280;38815;55.932;-3.232;2022-09-12T10:19:32;99990.75;;;19.41;64.49
52953;BME280;38815;55.932;-3.232;2022-09-12T10:21:58;100003.22;;;19.53;64.26
52953;BME280;38815;55.932;-3.232;2022-09-12T10:24:41;100010.94;;;19.53;64.25
52953;BME280;38815;55.932;-3.232;2022-09-12T10:34:45;100011.81;;;19.40;62.77
52953;BME280;38815;55.932;-3.232;2022-09-12T10:37:23;100017.72;;;19.50;62.55
52953;BME280;38815;55.932;-3.232;2022-09-12T10:39:53;100024.69;;;19.49;62.46
52953;BME280;38815;55.932;-3.232;2022-09-12T10:42:46;100023.38;;;19.50;62.16
52953;BME280;38815;55.932;-3.232;2022-09-12T10:47:51;99999.59;;;19.38;62.41
52953;BME280;38815;55.932;-3.232;2022-09-12T10:50:25;100032.81;;;19.52;62.06
52953;BME280;38815;55.932;-3.232;2022-09-12T10:52:52;100013.56;;;19.43;61.49
52953;BME280;38815;55.932;-3.232;2022-09-12T10:55:23;100029.97;;;19.52;61.67
52953;BME280;38815;55.932;-3.232;2022-09-12T11:00:20;100027.28;;;19.39;60.71
52953;BME280;38815;55.932;-3.232;2022-09-12T11:03:14;100043.94;;;19.50;60.20
52953;BME280;38815;55.932;-3.232;2022-09-12T11:11:14;100013.16;;;19.11;58.06
52953;BME280;38815;55.932;-3.232;2022-09-12T11:16:46;100039.91;;;19.38;58.11
52953;BME280;38815;55.932;-3.232;2022-09-12T11:19:23;100049.50;;;19.35;57.72
52953;BME280;38815;55.932;-3.232;2022-09-12T11:29:58;100057.03;;;19.33;57.97
52953;BME280;38815;55.932;-3.232;2022-09-12T11:35:23;100042.81;;;19.25;56.69
52953;BME280;38815;55.932;-3.232;2022-09-12T11:37:58;100054.75;;;19.31;56.89
52953;BME280;38815;55.932;-3.232;2022-09-12T11:40:33;100025.00;;;19.10;57.16
52953;BME280;38815;55.932;-3.232;2022-09-12T11:43:24;100052.81;;;19.26;56.98
52953;BME280;38815;55.932;-3.232;2022-09-12T11:45:51;100049.66;;;19.30;56.97
52953;BME280;38815;55.932;-3.232;2022-09-12T11:48:34;100032.22;;;19.18;56.77
52953;BME280;38815;55.932;-3.232;2022-09-12T11:51:04;100047.13;;;19.19;56.53
52953;BME280;38815;55.932;-3.232;2022-09-12T11:53:35;100046.63;;;19.28;56.62
52953;BME280;38815;55.932;-3.232;2022-09-12T11:56:15;100031.28;;;19.16;56.57
52953;BME280;38815;55.932;-3.232;2022-09-12T11:58:45;100024.50;;;19.19;56.72
52953;BME280;38815;55.932;-3.232;2022-09-12T12:01:16;100041.31;;;19.24;57.01
52953;BME280;38815;55.932;-3.232;2022-09-12T12:03:46;100029.97;;;19.17;56.66
52953;BME280;38815;55.932;-3.232;2022-09-12T12:06:32;100049.03;;;19.24;57.12
52953;BME280;38815;55.932;-3.232;2022-09-12T12:09:03;100040.75;;;19.26;57.10
52953;BME280;38815;55.932;-3.232;2022-09-12T12:11:34;100022.59;;;19.14;57.32
52953;BME280;38815;55.932;-3.232;2022-09-12T12:14:06;100027.38;;;19.26;57.37
52953;BME280;38815;55.932;-3.232;2022-09-12T12:16:38;100006.41;;;19.14;57.80
52953;BME280;38815;55.932;-3.232;2022-09-12T12:21:42;100022.69;;;19.29;57.84
52953;BME280;38815;55.932;-3.232;2022-09-12T12:34:40;100046.63;;;19.28;56.89
52953;BME280;38815;55.932;-3.232;2022-09-12T12:52:24;100025.22;;;19.12;56.52
52953;BME280;38815;55.932;-3.232;2022-09-12T12:54:54;100001.78;;;18.96;56.93
52953;BME280;38815;55.932;-3.232;2022-09-12T12:59:50;100056.59;;;19.29;57.00
52953;BME280;38815;55.932;-3.232;2022-09-12T13:02:29;100073.56;;;19.29;56.60
52953;BME280;38815;55.932;-3.232;2022-09-12T13:04:58;100059.38;;;19.21;56.66
52953;BME280;38815;55.932;-3.232;2022-09-12T13:07:36;100076.72;;;19.25;56.89
52953;BME280;38815;55.932;-3.232;2022-09-12T13:10:05;100052.88;;;19.06;56.88
52953;BME280;38815;55.932;-3.232;2022-09-12T13:12:44;100084.47;;;19.25;56.86
52953;BME280;38815;55.932;-3.232;2022-09-12T13:15:47;100097.50;;;19.28;56.95
52953;BME280;38815;55.932;-3.232;2022-09-12T13:18:26;100060.03;;;19.07;56.88
52953;BME280;38815;55.932;-3.232;2022-09-12T13:21:40;100101.06;;;19.28;57.18
52953;BME280;38815;55.932;-3.232;2022-09-12T13:24:11;100088.25;;;19.27;57.02
52953;BME280;38815;55.932;-3.232;2022-09-12T13:26:42;100090.50;;;19.29;56.72
52953;BME280;38815;55.932;-3.232;2022-09-12T13:29:14;100096.41;;;19.31;56.54
52953;BME280;38815;55.932;-3.232;2022-09-12T13:31:41;100077.09;;;19.22;56.32
52953;BME280;38815;55.932;-3.232;2022-09-12T13:34:08;100079.69;;;19.20;56.63
52953;BME280;38815;55.932;-3.232;2022-09-12T13:42:41;100078.75;;;19.17;56.94
52953;BME280;38815;55.932;-3.232;2022-09-12T13:45:18;100106.53;;;19.26;57.00
52953;BME280;38815;55.932;-3.232;2022-09-12T13:47:46;100102.16;;;19.25;56.75
52953;BME280;38815;55.932;-3.232;2022-09-12T13:50:52;100101.44;;;19.25;56.66
52953;BME280;38815;55.932;-3.232;2022-09-12T13:53:21;100082.84;;;19.09;56.69
52953;BME280;38815;55.932;-3.232;2022-09-12T13:55:59;100103.84;;;19.21;56.24
52953;BME280;38815;55.932;-3.232;2022-09-12T13:58:32;100049.53;;;18.87;55.84
52953;BME280;38815;55.932;-3.232;2022-09-12T14:01:11;100088.94;;;19.20;55.61
52953;BME280;38815;55.932;-3.232;2022-09-12T14:03:46;100048.50;;;18.97;55.04
52953;BME280;38815;55.932;-3.232;2022-09-12T14:06:51;100034.09;;;18.88;53.97
52953;BME280;38815;55.932;-3.232;2022-09-12T14:09:29;100081.38;;;19.15;53.78
52953;BME280;38815;55.932;-3.232;2022-09-12T14:11:57;100074.78;;;19.13;54.85
52953;BME280;38815;55.932;-3.232;2022-09-12T14:14:34;100075.94;;;19.17;53.65
52953;BME280;38815;55.932;-3.232;2022-09-12T14:17:13;100066.31;;;19.13;53.81
52953;BME280;38815;55.932;-3.232;2022-09-12T14:19:39;100047.94;;;18.99;53.44
52953;BME280;38815;55.932;-3.232;2022-09-12T14:22:08;100075.03;;;19.22;53.57
52953;BME280;38815;55.932;-3.232;2022-09-12T14:24:36;100062.38;;;19.16;53.01
52953;BME280;38815;55.932;-3.232;2022-09-12T14:27:03;100043.66;;;19.05;52.42
52953;BME280;38815;55.932;-3.232;2022-09-12T14:29:29;100045.91;;;19.07;52.56
52953;BME280;38815;55.932;-3.232;2022-09-12T14:32:03;100020.03;;;18.95;52.52
52953;BME280;38815;55.932;-3.232;2022-09-12T14:34:28;100041.78;;;19.08;52.89
52953;BME280;38815;55.932;-3.232;2022-09-12T14:36:54;100061.81;;;19.17;52.81
52953;BME280;38815;55.932;-3.232;2022-09-12T14:39:32;100057.66;;;19.18;52.60
52953;BME280;38815;55.932;-3.232;2022-09-12T14:44:29;100060.09;;;19.14;52.60
52953;BME280;38815;55.932;-3.232;2022-09-12T14:47:00;100065.53;;;19.12;51.97
52953;BME280;38815;55.932;-3.232;2022-09-12T14:49:35;100078.56;;;19.15;52.21
52953;BME280;38815;55.932;-3.232;2022-09-12T14:52:07;100063.84;;;19.09;52.20
52953;BME280;38815;55.932;-3.232;2022-09-12T14:54:39;100062.28;;;19.01;52.25
52953;BME280;38815;55.932;-3.232;2022-09-12T15:00:05;100053.72;;;18.93;52.03
52953;BME280;38815;55.932;-3.232;2022-09-12T15:02:33;100040.44;;;18.81;51.87
52953;BME280;38815;55.932;-3.232;2022-09-12T15:10:19;100065.09;;;19.01;51.98
52953;BME280;38815;55.932;-3.232;2022-09-12T15:12:50;100069.84;;;19.06;51.82
52953;BME280;38815;55.932;-3.232;2022-09-12T15:15:27;100056.13;;;18.89;51.62
52953;BME280;38815;55.932;-3.232;2022-09-12T15:17:52;100063.97;;;19.04;51.85
52953;BME280;38815;55.932;-3.232;2022-09-12T15:20:18;100085.31;;;19.12;51.79
52953;BME280;38815;55.932;-3.232;2022-09-12T15:22:43;100082.91;;;19.16;52.06
52953;BME280;38815;55.932;-3.232;2022-09-12T15:25:10;100090.63;;;19.16;52.04
52953;BME280;38815;55.932;-3.232;2022-09-12T15:27:36;100087.38;;;19.12;52.35
52953;BME280;38815;55.932;-3.232;2022-09-12T15:30:06;100091.78;;;19.20;52.03
52953;BME280;38815;55.932;-3.232;2022-09-12T15:32:31;100077.19;;;19.09;51.51
52953;BME280;38815;55.932;-3.232;2022-09-12T15:34:58;100085.13;;;19.10;51.71